Julian, WV (25529)

9:26 AM EST on November 22, 2014 (GMT -0500)
SOD | Change Station
CLOSE
Current Station
Personal Weather Station
Location: Sod, WV
Elevation: 771 ft
Nearby Weather Stations

Elev 771 ft 38.27 °N, 81.89 °W | Updated 1 second ago

Partly Cloudy
Partly Cloudy
31.8 °F
Feels Like 32 °F
N
2.0
Wind Variable Wind from SE
Gusts 6.0 mph

Today
High -- | Low -- °F
--% Chance of Precip.
Yesterday
High -- | Low -- °F
Precip. -- in
7:15 AM 5:10 PM
New Moon, 0% visible
Pressure 30.40 in
Visibility 10.0 miles
Clouds Scattered Clouds 4700 ft
Mostly Cloudy 18000 ft
Mostly Cloudy 30000 ft
Windchill 32 °F
Dew Point 25 °F
Humidity 77%
Rainfall 0.00 in
Snow Depth Not available.
UV 1 out of 12
Pollen .10 out of 12
Air Quality Not available.
Flu Activity Not available.
METAR KCRW 221354Z 00000KT 10SM SCT047 BKN180 BKN300 M03/M07 A3037 RMK AO2 SLP294 SCT V BKN T10331067

More Conditions Fewer Conditions

Pressure 30.40 in
Visibility 10.0 miles
Clouds Scattered Clouds 4700 ft
Mostly Cloudy 18000 ft
Mostly Cloudy 30000 ft
Windchill 32 °F
Dew Point 25 °F
Humidity 77%
Rainfall 0.00 in
Snow Depth Not available.
UV 1 out of 12
Pollen .10 out of 12
Air Quality Not available.
Flu Activity Not available.
METAR KCRW 221354Z 00000KT 10SM SCT047 BKN180 BKN300 M03/M07 A3037 RMK AO2 SLP294 SCT V BKN T10331067

More Conditions Fewer Conditions

10-Day Weather Forecast

Almanac

Astronomy

Nov. 22, 2014 Rise Set
Actual Time
Civil Twilight
Nautical Twilight
Astronomical Twilight
Moon
Length of Visible Light
Length of Day
Tomorrow will be .
, % of the Moon is Illuminated

Today's Extremes

State Highs State Lows

Community

WunderPhotos

Upload Photos

1,772,820 photos uploaded!

WunderBlogs® & News

Nearby

Air Quality

  Air Quality AQ Index Pollutant
Not available.

Snow Depth

Station Depth Elevation

Earthquake Activity

City Distance Mag. Time & Date
Minimum magnitude displayed is 2.5.

Coastal Water Temperatures

Place Temperature

Nearby Weather Stations